createdAt,value
2022-10-02T00:00:37.555Z,12.74
2022-10-02T00:03:14.932Z,12.79
2022-10-02T00:05:50.149Z,12.95
2022-10-02T00:08:24.476Z,12.88
2022-10-02T00:10:57.790Z,12.77
2022-10-02T00:13:37.397Z,12.57
2022-10-02T00:16:10.170Z,12.62
2022-10-02T00:18:42.141Z,12.68
2022-10-02T00:21:25.569Z,12.59
2022-10-02T00:23:59.288Z,12.87
2022-10-02T00:26:34.244Z,12.92
2022-10-02T00:29:21.390Z,12.92
2022-10-02T00:32:00.575Z,12.69
2022-10-02T00:34:39.721Z,12.73
2022-10-02T00:37:22.432Z,12.93
2022-10-02T00:40:03.111Z,12.85
2022-10-02T00:43:11.168Z,12.89
2022-10-02T00:46:01.892Z,12.79
2022-10-02T00:48:50.128Z,12.79
2022-10-02T00:51:41.842Z,12.88
2022-10-02T00:54:47.803Z,12.93
2022-10-02T00:57:29.182Z,12.85
2022-10-02T01:00:08.069Z,12.88
2022-10-02T01:03:00.778Z,12.87
2022-10-02T01:05:30.863Z,12.93
2022-10-02T01:08:00.859Z,12.94
2022-10-02T01:10:32.464Z,12.92
2022-10-02T01:13:02.200Z,12.72
2022-10-02T01:15:36.032Z,12.83
2022-10-02T01:18:10.210Z,12.38
2022-10-02T01:20:43.176Z,12.76
2022-10-02T01:23:25.664Z,12.90
2022-10-02T01:25:58.120Z,12.90
2022-10-02T01:28:28.317Z,12.88
2022-10-02T01:31:03.934Z,12.93
2022-10-02T01:33:34.506Z,12.77
2022-10-02T01:36:04.633Z,12.53
2022-10-02T01:38:34.764Z,12.92
2022-10-02T01:41:07.606Z,12.80
2022-10-02T01:43:40.125Z,12.87
2022-10-02T01:46:27.442Z,12.61
2022-10-02T01:49:09.062Z,12.83
2022-10-02T01:51:56.807Z,12.77
2022-10-02T01:54:36.425Z,12.82
2022-10-02T01:57:15.535Z,12.82
2022-10-02T01:59:56.579Z,12.77
2022-10-02T02:02:32.525Z,12.80
2022-10-02T02:05:11.141Z,12.75
2022-10-02T02:07:50.434Z,12.59
2022-10-02T02:10:26.391Z,12.69
2022-10-02T02:13:05.562Z,12.63
2022-10-02T02:15:42.801Z,12.74
2022-10-02T02:18:19.830Z,12.72
2022-10-02T02:20:53.517Z,12.73
2022-10-02T02:23:29.107Z,12.81
2022-10-02T02:26:03.688Z,12.85
2022-10-02T02:28:38.064Z,12.85
2022-10-02T02:31:10.424Z,12.80
2022-10-02T02:33:45.383Z,12.93
2022-10-02T02:36:21.001Z,12.93
2022-10-02T02:38:54.804Z,12.87
2022-10-02T02:41:30.435Z,12.99
2022-10-02T02:44:05.810Z,12.63
2022-10-02T02:47:01.527Z,12.92
2022-10-02T02:49:37.741Z,12.95
2022-10-02T02:52:13.228Z,12.94
2022-10-02T02:54:48.809Z,13.06
2022-10-02T02:57:21.244Z,13.00
2022-10-02T02:59:56.422Z,13.11
2022-10-02T03:02:26.264Z,13.08
2022-10-02T03:04:56.105Z,13.07
2022-10-02T03:07:25.909Z,13.07
2022-10-02T03:10:04.883Z,13.13
2022-10-02T03:12:51.048Z,13.14
2022-10-02T03:15:32.710Z,13.21
2022-10-02T03:18:20.219Z,13.12
2022-10-02T03:21:00.086Z,13.19
2022-10-02T03:23:35.651Z,13.13
2022-10-02T03:26:11.219Z,13.28
2022-10-02T03:28:57.064Z,13.25
2022-10-02T03:31:33.898Z,13.28
2022-10-02T03:34:06.105Z,13.17
2022-10-02T03:36:36.833Z,13.21
2022-10-02T03:39:25.916Z,13.03
2022-10-02T03:41:57.119Z,13.21
2022-10-02T03:44:27.373Z,13.18
2022-10-02T03:46:59.657Z,13.23
2022-10-02T03:49:29.341Z,13.28
2022-10-02T03:51:59.085Z,13.31
2022-10-02T03:54:33.610Z,13.31
2022-10-02T03:57:08.147Z,13.40
2022-10-02T03:59:47.429Z,13.37
2022-10-02T04:02:29.948Z,13.33
2022-10-02T04:05:05.617Z,13.21
2022-10-02T04:07:40.960Z,13.29
2022-10-02T04:10:22.033Z,13.42
2022-10-02T04:12:54.805Z,13.50
2022-10-02T04:15:30.779Z,13.43
2022-10-02T04:18:09.651Z,13.57
2022-10-02T04:20:46.579Z,13.48
2022-10-02T04:23:23.775Z,13.72
2022-10-02T04:25:58.193Z,13.63
2022-10-02T04:28:33.652Z,13.63
2022-10-02T04:31:04.173Z,13.56
2022-10-02T04:33:38.456Z,13.70
2022-10-02T04:36:22.479Z,13.70
2022-10-02T04:39:07.124Z,13.63
2022-10-02T04:42:00.248Z,13.45
2022-10-02T04:44:43.111Z,13.58
2022-10-02T04:47:31.998Z,13.36
2022-10-02T04:50:21.837Z,13.18
2022-10-02T04:53:12.197Z,13.41
2022-10-02T04:55:54.826Z,13.41
2022-10-02T04:58:39.002Z,13.30
2022-10-02T05:01:16.694Z,13.26
2022-10-02T05:04:21.926Z,13.13
2022-10-02T05:07:08.502Z,13.13
2022-10-02T05:09:44.335Z,13.00
2022-10-02T05:12:31.755Z,13.12
2022-10-02T05:15:18.803Z,13.10
2022-10-02T05:18:03.689Z,13.07
2022-10-02T05:21:10.219Z,13.04
2022-10-02T05:23:53.117Z,13.06
2022-10-02T05:26:47.031Z,13.15
2022-10-02T05:29:39.339Z,13.13
2022-10-02T05:32:21.535Z,13.32
2022-10-02T05:35:06.651Z,13.01
2022-10-02T05:37:50.199Z,13.31
2022-10-02T05:40:29.685Z,13.23
2022-10-02T05:43:08.958Z,13.43
2022-10-02T05:45:41.942Z,13.49
2022-10-02T05:48:20.264Z,13.16
2022-10-02T05:50:55.922Z,13.42
2022-10-02T05:53:36.750Z,13.50
2022-10-02T05:56:16.775Z,13.48
2022-10-02T05:58:53.040Z,13.27
2022-10-02T06:01:28.897Z,13.28
2022-10-02T06:04:05.095Z,13.08
2022-10-02T06:06:39.694Z,13.32
2022-10-02T06:09:20.126Z,13.36
2022-10-02T06:11:55.794Z,13.40
2022-10-02T06:14:30.528Z,13.39
2022-10-02T06:17:04.280Z,13.44
2022-10-02T06:19:39.952Z,13.39
2022-10-02T06:22:15.877Z,13.53
2022-10-02T06:24:53.859Z,13.55
2022-10-02T06:27:35.275Z,13.48
2022-10-02T06:30:08.284Z,13.68
2022-10-02T06:32:46.466Z,13.76
2022-10-02T06:35:18.491Z,13.84
2022-10-02T06:38:10.521Z,13.98
2022-10-02T06:40:50.801Z,14.15
2022-10-02T06:43:36.829Z,14.17
2022-10-02T06:46:22.956Z,14.31
2022-10-02T06:48:59.368Z,14.28
2022-10-02T06:51:42.020Z,14.19
2022-10-02T06:54:35.984Z,14.02
2022-10-02T06:57:24.663Z,13.96
2022-10-02T07:00:12.215Z,13.96
2022-10-02T07:03:07.705Z,14.09
2022-10-02T07:05:56.016Z,14.12
2022-10-02T07:08:40.148Z,14.21
2022-10-02T07:11:18.507Z,14.28
2022-10-02T07:14:07.155Z,14.44
2022-10-02T07:17:05.232Z,14.46
2022-10-02T07:19:55.407Z,14.35
2022-10-02T07:22:44.975Z,14.49
2022-10-02T07:25:31.647Z,14.59
2022-10-02T07:28:11.647Z,14.54
2022-10-02T07:30:52.203Z,14.42
2022-10-02T07:33:34.128Z,14.52
2022-10-02T07:36:12.372Z,14.23
2022-10-02T07:38:57.986Z,14.52
2022-10-02T07:42:03.909Z,14.73
2022-10-02T07:44:57.512Z,14.78
2022-10-02T07:47:45.007Z,14.86
2022-10-02T07:50:25.371Z,14.69
2022-10-02T07:53:05.757Z,14.79
2022-10-02T07:55:41.916Z,14.85
2022-10-02T07:58:16.835Z,14.91
2022-10-02T08:00:51.703Z,15.14
2022-10-02T08:03:27.122Z,15.22
2022-10-02T08:06:01.688Z,15.36
2022-10-02T08:08:41.146Z,15.41
2022-10-02T08:11:16.446Z,15.58
2022-10-02T08:13:52.638Z,15.67
2022-10-02T08:16:26.462Z,15.75
2022-10-02T08:19:02.640Z,15.75
2022-10-02T08:21:41.635Z,15.92
2022-10-02T08:24:16.983Z,16.01
2022-10-02T08:26:54.573Z,15.93
2022-10-02T08:29:30.884Z,15.90
2022-10-02T08:32:01.280Z,16.03
